createdAt,value
2018-06-21T00:00:52.443Z,71.10
2018-06-21T00:03:22.143Z,71.40
2018-06-21T00:05:51.798Z,71.60
2018-06-21T00:08:21.562Z,71.70
2018-06-21T00:10:51.215Z,71.70
2018-06-21T00:13:20.891Z,71.40
2018-06-21T00:15:51.351Z,71.60
2018-06-21T00:18:21.051Z,71.70
2018-06-21T00:20:50.737Z,71.70
2018-06-21T00:23:20.443Z,72.00
2018-06-21T00:25:50.119Z,72.00
2018-06-21T00:28:19.836Z,71.50
2018-06-21T00:30:49.518Z,71.90
2018-06-21T00:33:19.219Z,72.00
2018-06-21T00:35:48.877Z,71.60
2018-06-21T00:38:18.571Z,71.60
2018-06-21T00:40:48.231Z,72.40
2018-06-21T00:43:17.957Z,72.10
2018-06-21T00:45:51.564Z,72.00
2018-06-21T00:48:21.317Z,72.60
2018-06-21T00:50:50.983Z,72.50
2018-06-21T00:53:20.691Z,72.80
2018-06-21T00:56:01.575Z,72.60
2018-06-21T00:58:31.297Z,73.10
2018-06-21T01:01:00.987Z,73.00
2018-06-21T01:03:30.719Z,73.40
2018-06-21T01:06:00.427Z,72.80
2018-06-21T01:08:30.146Z,72.40
2018-06-21T01:10:59.802Z,72.50
2018-06-21T01:13:29.488Z,72.80
2018-06-21T01:15:59.193Z,72.90
2018-06-21T01:18:28.878Z,73.10
2018-06-21T01:20:58.552Z,73.50
2018-06-21T01:23:28.246Z,73.80
2018-06-21T01:25:57.921Z,74.00
2018-06-21T01:28:27.771Z,74.50
2018-06-21T01:30:57.487Z,74.40
2018-06-21T01:33:27.187Z,74.50
2018-06-21T01:35:56.864Z,74.40
2018-06-21T01:38:26.927Z,74.30
2018-06-21T01:40:56.607Z,74.30
2018-06-21T01:43:26.306Z,74.30
2018-06-21T01:45:56.023Z,74.70
2018-06-21T01:48:25.711Z,74.70
2018-06-21T01:50:55.397Z,74.80
2018-06-21T01:53:25.075Z,75.00
2018-06-21T01:55:54.768Z,75.30
2018-06-21T01:58:24.457Z,75.60
2018-06-21T02:00:54.122Z,75.70
2018-06-21T02:03:23.820Z,76.30
2018-06-21T02:05:53.463Z,76.30
2018-06-21T02:08:23.171Z,76.30
2018-06-21T02:10:52.831Z,76.30
2018-06-21T02:13:22.511Z,76.50
2018-06-21T02:15:52.163Z,76.90
2018-06-21T02:18:21.826Z,76.90
2018-06-21T02:20:51.482Z,76.70
2018-06-21T02:23:21.499Z,77.00
2018-06-21T02:25:51.612Z,77.30
2018-06-21T02:28:21.271Z,76.80
2018-06-21T02:30:50.943Z,76.60
2018-06-21T02:33:20.632Z,76.60
2018-06-21T02:35:50.298Z,76.90
2018-06-21T02:38:19.978Z,76.60
2018-06-21T02:40:49.634Z,76.90
2018-06-21T02:43:19.307Z,77.20
2018-06-21T02:45:50.767Z,77.40
2018-06-21T02:48:20.478Z,77.70
2018-06-21T02:50:50.139Z,77.00
2018-06-21T02:53:19.794Z,76.90
2018-06-21T02:55:49.486Z,76.90
2018-06-21T02:58:19.155Z,77.20
2018-06-21T03:00:48.864Z,77.40
2018-06-21T03:03:18.606Z,77.50
2018-06-21T03:05:48.319Z,77.70
2018-06-21T03:08:17.990Z,78.00
2018-06-21T03:10:47.704Z,78.30
2018-06-21T03:13:17.427Z,78.30
2018-06-21T03:15:47.119Z,78.60
2018-06-21T03:18:16.832Z,78.40
2018-06-21T03:20:46.524Z,78.40
2018-06-21T03:23:16.187Z,78.10
2018-06-21T03:25:45.882Z,78.20
2018-06-21T03:28:15.551Z,78.40
2018-06-21T03:30:45.259Z,78.80
2018-06-21T03:33:14.930Z,78.60
2018-06-21T03:35:44.646Z,78.10
2018-06-21T03:38:14.314Z,78.10
2018-06-21T03:40:44.019Z,77.80
2018-06-21T03:43:13.688Z,78.10
2018-06-21T03:45:48.949Z,77.90
2018-06-21T03:48:18.652Z,78.50
2018-06-21T03:50:48.400Z,78.80
2018-06-21T03:53:18.075Z,79.20
2018-06-21T03:55:47.837Z,79.20
2018-06-21T03:58:17.515Z,79.20
2018-06-21T04:03:27.207Z,79.20
2018-06-21T04:05:58.099Z,79.10
2018-06-21T04:08:29.215Z,79.50
2018-06-21T04:11:01.187Z,79.60
2018-06-21T04:13:31.205Z,79.60
2018-06-21T04:16:00.907Z,79.40
2018-06-21T04:18:36.399Z,79.30
2018-06-21T04:21:07.451Z,79.50
2018-06-21T04:23:37.140Z,79.20
2018-06-21T04:26:06.867Z,79.30
2018-06-21T04:28:45.445Z,80.00
2018-06-21T04:31:16.227Z,80.00
2018-06-21T04:33:47.376Z,80.10
2018-06-21T04:36:17.135Z,79.70
2018-06-21T04:38:48.792Z,79.30
2018-06-21T04:41:18.518Z,79.20
2018-06-21T04:43:48.225Z,79.70
2018-06-21T04:46:22.131Z,80.30
2018-06-21T04:48:51.999Z,79.70
2018-06-21T04:51:21.712Z,79.90
2018-06-21T04:53:51.379Z,80.20
2018-06-21T04:56:21.083Z,80.60
2018-06-21T04:58:50.907Z,81.00
2018-06-21T05:01:20.595Z,80.70
2018-06-21T05:03:50.415Z,81.00
2018-06-21T05:06:20.331Z,81.30
2018-06-21T05:08:50.205Z,81.30
2018-06-21T05:11:20.069Z,81.40
2018-06-21T05:13:49.743Z,81.20
2018-06-21T05:16:19.435Z,81.00
2018-06-21T05:18:49.099Z,80.70
2018-06-21T05:21:18.803Z,80.90
2018-06-21T05:23:48.467Z,80.90
2018-06-21T05:26:18.218Z,80.60
2018-06-21T05:28:48.049Z,81.10
2018-06-21T05:31:17.970Z,81.10
2018-06-21T05:33:47.967Z,80.90
2018-06-21T05:36:17.675Z,80.00
2018-06-21T05:38:47.871Z,79.60
2018-06-21T05:41:17.546Z,79.70
2018-06-21T05:43:47.214Z,79.30
2018-06-21T05:46:16.902Z,77.70
2018-06-21T05:48:46.830Z,75.80
2018-06-21T05:51:16.533Z,75.30
2018-06-21T05:53:46.227Z,73.50
2018-06-21T05:56:15.947Z,72.70
2018-06-21T05:58:45.637Z,70.60
2018-06-21T06:01:15.371Z,71.00
2018-06-21T06:03:45.154Z,70.90
2018-06-21T06:06:14.939Z,68.10
2018-06-21T06:08:44.620Z,67.10
2018-06-21T06:11:14.326Z,67.10
2018-06-21T06:13:44.004Z,68.30
2018-06-21T06:16:13.746Z,67.00
2018-06-21T06:18:43.411Z,65.20
2018-06-21T06:21:13.244Z,63.70
2018-06-21T06:23:43.226Z,63.80
2018-06-21T06:26:12.964Z,64.10
2018-06-21T06:28:42.860Z,62.80
2018-06-21T06:31:12.986Z,62.60
2018-06-21T06:33:42.662Z,61.20
2018-06-21T06:36:12.389Z,61.90
2018-06-21T06:38:42.079Z,60.90
2018-06-21T06:41:11.869Z,60.00
2018-06-21T06:43:41.642Z,60.30
2018-06-21T06:46:11.397Z,59.50
2018-06-21T06:48:41.338Z,59.50
2018-06-21T06:51:11.223Z,59.10
2018-06-21T06:53:41.067Z,59.30
2018-06-21T06:56:10.743Z,58.00
2018-06-21T06:58:40.370Z,57.60
2018-06-21T07:01:10.091Z,57.70
2018-06-21T07:03:40.163Z,57.50
2018-06-21T07:08:39.463Z,57.10
2018-06-21T07:11:09.304Z,57.10
2018-06-21T07:13:38.958Z,55.60
2018-06-21T07:16:08.675Z,55.80
2018-06-21T07:18:38.439Z,56.10
2018-06-21T07:21:08.132Z,56.70
2018-06-21T07:23:37.802Z,56.00
2018-06-21T07:26:07.479Z,56.20
2018-06-21T07:28:37.164Z,56.20
2018-06-21T07:31:06.942Z,55.10
2018-06-21T07:33:36.623Z,55.20
2018-06-21T07:36:06.500Z,55.10
2018-06-21T07:38:36.412Z,55.20
2018-06-21T07:41:06.067Z,55.20
2018-06-21T07:43:35.776Z,55.00
2018-06-21T07:46:05.546Z,54.10
2018-06-21T07:48:35.242Z,54.90
2018-06-21T07:51:04.912Z,54.10
2018-06-21T07:53:34.593Z,53.60
2018-06-21T07:56:04.896Z,53.40
2018-06-21T07:58:34.580Z,54.90
2018-06-21T08:01:04.236Z,54.60
2018-06-21T08:03:33.962Z,54.00
2018-06-21T08:06:03.619Z,54.70
2018-06-21T08:08:33.318Z,53.70
2018-06-21T08:11:03.015Z,53.40
2018-06-21T08:13:32.684Z,53.00
2018-06-21T08:16:02.347Z,54.50
2018-06-21T08:18:32.126Z,52.60
2018-06-21T08:21:01.804Z,54.20
2018-06-21T08:23:31.492Z,53.20
2018-06-21T08:26:01.161Z,53.30
2018-06-21T08:28:30.858Z,54.00
2018-06-21T08:31:00.535Z,54.70
2018-06-21T08:33:30.296Z,54.10
2018-06-21T08:36:00.027Z,54.70
2018-06-21T08:38:29.715Z,54.30
2018-06-21T08:40:59.407Z,54.20
2018-06-21T08:43:30.330Z,54.90
2018-06-21T08:46:00.083Z,55.30
2018-06-21T08:48:29.910Z,54.50
2018-06-21T08:50:59.570Z,55.50
2018-06-21T08:53:29.263Z,55.20
2018-06-21T08:55:59.320Z,55.00
2018-06-21T08:58:29.183Z,55.50
2018-06-21T09:00:59.079Z,54.80
2018-06-21T09:03:28.791Z,53.90
2018-06-21T09:05:58.471Z,53.90
2018-06-21T09:08:28.167Z,54.20
2018-06-21T09:10:57.843Z,54.90
2018-06-21T09:13:33.199Z,53.40
2018-06-21T09:16:03.662Z,53.60
2018-06-21T09:18:33.367Z,54.50
2018-06-21T09:21:03.441Z,54.10
2018-06-21T09:23:33.330Z,54.40
2018-06-21T09:26:03.423Z,54.10
2018-06-21T09:28:33.211Z,54.10
2018-06-21T09:31:02.867Z,54.70
2018-06-21T09:33:32.567Z,53.60
2018-06-21T09:38:36.874Z,52.80
2018-06-21T09:41:12.065Z,51.80
2018-06-21T09:43:50.294Z,52.60
2018-06-21T09:46:33.869Z,52.10
2018-06-21T09:48:53.079Z,51.30
2018-06-21T09:51:22.759Z,52.20
2018-06-21T09:53:52.422Z,51.80
2018-06-21T09:56:22.135Z,51.30
2018-06-21T09:58:51.880Z,51.50
2018-06-21T10:01:21.724Z,51.60
2018-06-21T10:03:51.406Z,52.00
2018-06-21T10:06:21.090Z,52.10
2018-06-21T10:08:50.835Z,51.70
2018-06-21T10:11:20.619Z,52.00
2018-06-21T10:13:50.290Z,51.00
2018-06-21T10:16:19.978Z,52.70
2018-06-21T10:18:49.651Z,51.70
2018-06-21T10:21:19.333Z,50.90
2018-06-21T10:23:48.983Z,50.50
2018-06-21T10:26:18.663Z,47.40
2018-06-21T10:28:48.330Z,47.00
2018-06-21T10:31:17.994Z,46.90
2018-06-21T10:33:47.646Z,47.30
2018-06-21T10:36:17.321Z,47.00
2018-06-21T10:38:46.986Z,46.30
2018-06-21T10:41:16.686Z,46.10
2018-06-21T10:43:46.364Z,46.10
2018-06-21T10:46:16.083Z,46.20
2018-06-21T10:48:45.763Z,46.10
2018-06-21T10:51:15.459Z,45.80
2018-06-21T10:53:45.235Z,45.80
2018-06-21T10:56:14.931Z,44.70
2018-06-21T10:58:44.721Z,45.30
2018-06-21T11:01:14.399Z,44.70
2018-06-21T11:03:44.107Z,45.50
2018-06-21T11:06:13.791Z,45.00
2018-06-21T11:08:43.524Z,42.50
2018-06-21T11:11:13.106Z,41.80
2018-06-21T11:13:42.775Z,42.30
2018-06-21T11:16:12.475Z,40.80
2018-06-21T11:18:42.204Z,40.90
2018-06-21T11:21:11.890Z,40.10
2018-06-21T11:23:41.551Z,39.20
2018-06-21T11:26:11.539Z,38.50
2018-06-21T11:28:42.992Z,40.40
2018-06-21T11:31:12.676Z,39.40
2018-06-21T11:33:42.334Z,40.80
2018-06-21T11:36:14.467Z,42.30
2018-06-21T11:38:44.146Z,41.70
2018-06-21T11:41:13.850Z,41.90
2018-06-21T11:43:43.536Z,41.70
2018-06-21T11:46:13.223Z,41.70
2018-06-21T11:48:42.891Z,43.00
2018-06-21T11:51:14.161Z,43.40
2018-06-21T11:53:47.143Z,44.60
2018-06-21T11:56:16.870Z,43.20
2018-06-21T11:58:46.544Z,42.00
2018-06-21T12:01:17.819Z,42.50
2018-06-21T12:03:48.091Z,42.80
2018-06-21T12:06:17.832Z,43.00
2018-06-21T12:08:47.582Z,43.70
2018-06-21T12:11:17.562Z,43.00
2018-06-21T12:16:16.543Z,42.80
2018-06-21T12:18:46.330Z,43.40
2018-06-21T12:21:16.011Z,44.40
2018-06-21T12:23:45.719Z,44.70
2018-06-21T12:26:15.457Z,39.60
2018-06-21T12:28:45.314Z,36.10
2018-06-21T12:31:14.987Z,35.90
2018-06-21T12:33:44.744Z,37.10
2018-06-21T12:36:14.755Z,38.70
2018-06-21T12:38:44.442Z,39.40
2018-06-21T12:41:14.111Z,38.70
2018-06-21T12:43:43.851Z,36.00
2018-06-21T12:46:13.871Z,37.10
2018-06-21T12:48:43.583Z,37.30
2018-06-21T12:51:13.276Z,39.30
2018-06-21T12:53:43.008Z,39.70
2018-06-21T12:56:12.744Z,40.60
2018-06-21T12:58:42.447Z,40.70
2018-06-21T13:01:12.155Z,40.60
2018-06-21T13:03:41.892Z,41.00
2018-06-21T13:06:11.595Z,41.50
2018-06-21T13:08:52.543Z,42.20
2018-06-21T13:11:33.582Z,42.20
2018-06-21T13:14:14.501Z,41.80
2018-06-21T13:16:44.627Z,41.40
2018-06-21T13:19:14.423Z,41.10
2018-06-21T13:21:44.114Z,40.90
2018-06-21T13:24:13.823Z,41.00
2018-06-21T13:26:43.584Z,41.20
2018-06-21T13:29:13.374Z,40.60
2018-06-21T13:31:43.058Z,40.80
2018-06-21T13:34:12.779Z,42.20
2018-06-21T13:36:42.654Z,41.90
2018-06-21T13:39:12.358Z,43.20
2018-06-21T13:41:42.083Z,42.70
2018-06-21T13:44:11.783Z,43.90
2018-06-21T13:46:41.871Z,43.10
2018-06-21T13:49:11.559Z,43.70
2018-06-21T13:51:41.664Z,44.50
2018-06-21T13:54:11.395Z,44.80
2018-06-21T13:59:10.388Z,45.30
2018-06-21T14:01:40.122Z,45.50
2018-06-21T14:04:09.826Z,45.20
2018-06-21T14:06:39.507Z,45.00
2018-06-21T14:09:10.969Z,45.50
2018-06-21T14:11:41.395Z,45.40
2018-06-21T14:14:11.208Z,45.40
2018-06-21T14:16:40.943Z,46.10
2018-06-21T14:19:10.693Z,45.30
2018-06-21T14:21:40.571Z,45.40
2018-06-21T14:24:12.323Z,45.30
2018-06-21T14:26:43.234Z,45.30
2018-06-21T14:29:13.614Z,45.00
2018-06-21T14:31:43.299Z,43.10
2018-06-21T14:34:13.018Z,43.80
2018-06-21T14:36:42.716Z,43.60
2018-06-21T14:39:12.415Z,43.40
2018-06-21T14:41:42.086Z,44.20
2018-06-21T14:44:12.171Z,44.20
2018-06-21T14:46:42.039Z,45.60
2018-06-21T14:49:11.734Z,47.00
2018-06-21T14:51:41.403Z,47.80
2018-06-21T14:54:11.104Z,47.90
2018-06-21T14:56:40.918Z,49.20
2018-06-21T14:59:10.615Z,46.50
2018-06-21T15:01:40.312Z,46.70
2018-06-21T15:04:10.055Z,47.50
2018-06-21T15:06:40.460Z,47.10
2018-06-21T15:09:12.103Z,47.40
2018-06-21T15:11:41.827Z,48.20
2018-06-21T15:14:11.543Z,47.80
2018-06-21T15:16:41.239Z,48.40
2018-06-21T15:19:10.919Z,48.20
2018-06-21T15:21:41.103Z,48.90
2018-06-21T15:24:10.784Z,49.30
2018-06-21T15:26:40.491Z,49.50
2018-06-21T15:29:10.270Z,49.90
2018-06-21T15:31:41.451Z,50.80
2018-06-21T15:34:11.122Z,51.40
2018-06-21T15:36:41.207Z,52.30
2018-06-21T15:39:21.499Z,52.50
2018-06-21T15:41:51.988Z,52.90
2018-06-21T15:44:21.678Z,53.50
2018-06-21T15:46:51.466Z,52.80
2018-06-21T15:49:21.108Z,52.80
2018-06-21T15:51:50.823Z,53.40
2018-06-21T15:54:20.479Z,53.30
2018-06-21T15:56:50.163Z,53.20
2018-06-21T15:59:19.810Z,53.20
2018-06-21T16:01:49.516Z,53.00
2018-06-21T16:04:19.214Z,53.20
2018-06-21T16:06:48.900Z,53.30
2018-06-21T16:09:18.567Z,53.30
2018-06-21T16:11:48.247Z,52.60
2018-06-21T16:14:17.963Z,53.10
2018-06-21T16:16:47.626Z,53.70
2018-06-21T16:19:17.291Z,53.00
2018-06-21T16:21:46.978Z,53.90
2018-06-21T16:24:17.023Z,54.40
2018-06-21T16:26:46.687Z,53.70
2018-06-21T16:29:16.347Z,53.60
2018-06-21T16:31:46.055Z,54.20
2018-06-21T16:34:15.787Z,53.00
2018-06-21T16:36:45.479Z,52.50
2018-06-21T16:39:15.186Z,53.10
2018-06-21T16:41:45.075Z,52.80
2018-06-21T16:44:16.372Z,53.10
2018-06-21T16:46:46.831Z,52.30
2018-06-21T16:49:16.595Z,52.10
2018-06-21T16:51:46.507Z,52.40
2018-06-21T16:54:16.179Z,52.70
2018-06-21T16:56:45.850Z,52.60
2018-06-21T16:59:19.133Z,53.40
2018-06-21T17:01:48.995Z,52.50
2018-06-21T17:04:18.686Z,52.60
2018-06-21T17:06:48.410Z,52.60
2018-06-21T17:09:18.238Z,52.70
2018-06-21T17:11:47.881Z,53.00
2018-06-21T17:14:18.495Z,53.00
2018-06-21T17:16:48.151Z,52.90
2018-06-21T17:19:17.827Z,53.20
2018-06-21T17:21:47.493Z,54.20
2018-06-21T17:24:17.186Z,53.50
2018-06-21T17:26:46.883Z,53.30
2018-06-21T17:29:16.565Z,53.50
2018-06-21T17:31:47.959Z,54.40
2018-06-21T17:34:19.784Z,54.20
2018-06-21T17:36:49.467Z,54.20
2018-06-21T17:39:21.699Z,54.50
2018-06-21T17:41:51.570Z,54.50
2018-06-21T17:44:21.279Z,54.10
2018-06-21T17:46:50.943Z,54.40
2018-06-21T17:49:22.388Z,54.20
2018-06-21T17:51:54.556Z,54.30
2018-06-21T17:54:24.265Z,54.20
2018-06-21T17:56:53.911Z,54.30
2018-06-21T17:59:26.933Z,54.40
2018-06-21T18:02:00.780Z,54.60
2018-06-21T18:07:02.955Z,54.40
2018-06-21T18:09:33.559Z,54.30
2018-06-21T18:12:04.246Z,54.30
2018-06-21T18:14:35.205Z,51.50
2018-06-21T18:17:06.081Z,49.00
2018-06-21T18:19:40.576Z,49.50
2018-06-21T18:22:10.696Z,49.30
2018-06-21T18:24:40.391Z,48.50
2018-06-21T18:27:10.657Z,48.30
2018-06-21T18:29:40.719Z,48.30
2018-06-21T18:32:16.181Z,46.80
2018-06-21T18:34:50.147Z,47.10
2018-06-21T18:37:20.619Z,47.20
2018-06-21T18:39:50.436Z,47.10
2018-06-21T18:42:20.191Z,45.80
2018-06-21T18:44:50.386Z,41.20
2018-06-21T18:47:20.525Z,41.10
2018-06-21T18:49:50.215Z,40.20
2018-06-21T18:52:19.891Z,39.70
2018-06-21T18:54:49.579Z,40.20
2018-06-21T18:57:19.609Z,40.70
2018-06-21T18:59:49.327Z,40.00
2018-06-21T19:02:19.682Z,39.70
2018-06-21T19:04:49.498Z,40.40
2018-06-21T19:07:24.903Z,39.40
2018-06-21T19:10:00.179Z,39.60
2018-06-21T19:12:29.858Z,39.50
2018-06-21T19:14:59.564Z,39.60
2018-06-21T19:17:29.451Z,40.20
2018-06-21T19:19:59.478Z,39.40
2018-06-21T19:22:29.678Z,39.50
2018-06-21T19:24:59.411Z,40.30
2018-06-21T19:27:29.070Z,40.10
2018-06-21T19:29:58.879Z,40.10
2018-06-21T19:32:28.538Z,40.40
2018-06-21T19:34:58.211Z,40.10
2018-06-21T19:37:27.927Z,39.30
2018-06-21T19:39:57.591Z,40.00
2018-06-21T19:42:27.319Z,39.90
2018-06-21T19:44:56.979Z,39.70
2018-06-21T19:47:26.667Z,40.10
2018-06-21T19:49:56.562Z,39.50
2018-06-21T19:52:26.247Z,39.60
2018-06-21T19:54:55.917Z,39.10
2018-06-21T19:57:25.647Z,39.50
2018-06-21T19:59:55.319Z,38.70
2018-06-21T20:02:30.491Z,38.40
2018-06-21T20:05:00.171Z,38.50
2018-06-21T20:07:29.888Z,38.90
2018-06-21T20:09:59.571Z,37.90
2018-06-21T20:12:29.271Z,38.20
2018-06-21T20:15:00.872Z,38.40
2018-06-21T20:17:31.804Z,37.80
2018-06-21T20:20:07.225Z,38.20
2018-06-21T20:22:37.138Z,38.60
2018-06-21T20:25:06.835Z,39.20
2018-06-21T20:27:36.538Z,38.80
2018-06-21T20:30:06.575Z,38.50
2018-06-21T20:32:36.280Z,39.00
2018-06-21T20:35:05.975Z,39.00
2018-06-21T20:37:36.041Z,38.70
2018-06-21T20:40:07.164Z,38.10
2018-06-21T20:42:38.584Z,39.20
2018-06-21T20:45:10.953Z,38.80
2018-06-21T20:47:41.769Z,39.10
2018-06-21T20:50:12.965Z,38.90
2018-06-21T20:52:42.851Z,39.20
2018-06-21T20:55:13.706Z,39.10
2018-06-21T20:57:45.663Z,38.70
2018-06-21T21:00:18.174Z,39.30
2018-06-21T21:02:49.257Z,39.60
2018-06-21T21:05:20.368Z,39.20
2018-06-21T21:07:52.106Z,38.90
2018-06-21T21:10:23.323Z,39.40
2018-06-21T21:12:54.568Z,39.50
2018-06-21T21:15:25.170Z,39.30
2018-06-21T21:17:56.346Z,39.50
2018-06-21T21:20:28.381Z,39.40
2018-06-21T21:22:58.630Z,39.50
2018-06-21T21:25:31.486Z,40.40
2018-06-21T21:28:03.092Z,40.50
2018-06-21T21:30:33.537Z,40.60
2018-06-21T21:33:03.895Z,41.10
2018-06-21T21:35:33.759Z,41.00
2018-06-21T21:38:04.599Z,41.30
2018-06-21T21:40:36.287Z,41.50
2018-06-21T21:43:07.378Z,41.60
2018-06-21T21:45:38.508Z,41.60
2018-06-21T21:48:10.011Z,41.70
2018-06-21T21:50:41.430Z,42.00
2018-06-21T21:53:12.190Z,42.70
2018-06-21T21:55:42.890Z,43.20
2018-06-21T21:58:12.811Z,42.90
2018-06-21T22:00:54.089Z,42.80
2018-06-21T22:03:24.474Z,43.00
2018-06-21T22:05:54.952Z,43.20
2018-06-21T22:08:28.309Z,43.40
2018-06-21T22:13:29.435Z,44.00
2018-06-21T22:15:59.213Z,44.00
2018-06-21T22:18:30.344Z,43.80
2018-06-21T22:21:00.516Z,44.00
2018-06-21T22:23:31.350Z,45.10
2018-06-21T22:26:02.487Z,44.40
2018-06-21T22:28:34.190Z,44.70
2018-06-21T22:31:05.977Z,44.30
2018-06-21T22:33:37.143Z,44.50
2018-06-21T22:36:07.925Z,45.20
2018-06-21T22:38:38.580Z,45.10
2018-06-21T22:41:09.682Z,44.90
2018-06-21T22:43:41.666Z,45.30
2018-06-21T22:46:13.112Z,44.90
2018-06-21T22:48:43.607Z,45.50
2018-06-21T22:51:13.945Z,45.70
2018-06-21T22:53:45.017Z,45.70
2018-06-21T22:56:16.744Z,46.00
2018-06-21T22:58:48.405Z,45.90
2018-06-21T23:01:20.092Z,46.60
2018-06-21T23:03:50.616Z,46.20
2018-06-21T23:06:23.354Z,46.80
2018-06-21T23:08:53.828Z,47.00
2018-06-21T23:11:24.093Z,47.50
2018-06-21T23:13:54.685Z,46.50
2018-06-21T23:16:24.697Z,47.30
2018-06-21T23:19:05.787Z,47.70
2018-06-21T23:21:35.991Z,47.90
2018-06-21T23:24:06.232Z,47.20
2018-06-21T23:26:36.440Z,48.30
2018-06-21T23:29:06.595Z,47.40
2018-06-21T23:31:38.211Z,47.00
2018-06-21T23:34:08.471Z,46.70
2018-06-21T23:36:38.229Z,47.40
2018-06-21T23:39:09.587Z,47.60
2018-06-21T23:41:39.378Z,47.50
2018-06-21T23:44:09.303Z,48.30
2018-06-21T23:46:39.068Z,49.10
2018-06-21T23:49:08.727Z,49.30
2018-06-21T23:51:39.254Z,49.80
2018-06-21T23:54:11.420Z,49.40
2018-06-21T23:56:42.151Z,50.20
2018-06-21T23:59:12.170Z,50.10
